createdAt,value
2018-09-10T00:02:00.336Z,15.71
2018-09-10T00:13:02.016Z,15.61
2018-09-10T00:24:03.446Z,15.49
2018-09-10T00:35:02.322Z,15.45
2018-09-10T00:46:03.587Z,15.30
2018-09-10T00:57:05.990Z,15.24
2018-09-10T01:08:07.659Z,15.15
2018-09-10T01:19:09.866Z,15.28
2018-09-10T01:30:11.233Z,15.13
2018-09-10T01:41:13.842Z,14.91
2018-09-10T01:52:15.421Z,14.98
2018-09-10T02:03:17.822Z,14.98
2018-09-10T02:14:19.611Z,14.95
2018-09-10T02:25:19.677Z,14.80
2018-09-10T02:36:20.583Z,14.75
2018-09-10T02:47:23.459Z,14.83
2018-09-10T02:58:26.238Z,14.83
2018-09-10T03:09:29.337Z,14.98
2018-09-10T03:20:31.512Z,15.08
2018-09-10T03:31:33.231Z,15.27
2018-09-10T03:42:35.828Z,15.34
2018-09-10T03:53:37.303Z,15.43
2018-09-10T04:04:35.682Z,15.59
2018-09-10T04:15:37.067Z,15.45
2018-09-10T04:26:38.813Z,15.30
2018-09-10T04:37:40.979Z,15.24
2018-09-10T04:48:43.425Z,15.16
2018-09-10T04:59:47.550Z,15.20
2018-09-10T05:10:41.919Z,15.09
2018-09-10T05:21:16.440Z,15.16
2018-09-10T05:32:19.445Z,15.39
2018-09-10T05:43:22.441Z,15.61
2018-09-10T05:54:25.899Z,16.00
2018-09-10T06:05:29.486Z,16.85
2018-09-10T06:16:32.787Z,17.15
2018-09-10T06:27:35.059Z,17.50
2018-09-10T06:38:37.584Z,17.71
2018-09-10T06:49:41.472Z,18.28
2018-09-10T07:00:44.739Z,18.68
2018-09-10T07:11:47.441Z,18.99
2018-09-10T07:22:49.284Z,19.25
2018-09-10T07:33:49.833Z,19.58
2018-09-10T07:44:53.239Z,20.06
2018-09-10T07:55:56.443Z,20.38
2018-09-10T08:06:58.577Z,20.68
2018-09-10T08:18:01.936Z,21.11
2018-09-10T08:29:03.831Z,21.35
2018-09-10T08:40:03.096Z,21.63
2018-09-10T08:51:05.246Z,21.89
2018-09-10T09:02:02.759Z,22.20
2018-09-10T09:12:57.245Z,22.42
2018-09-10T09:23:56.539Z,22.89
2018-09-10T09:34:59.463Z,23.02
2018-09-10T09:45:58.353Z,23.58
2018-09-10T09:57:00.904Z,24.01
2018-09-10T10:08:01.127Z,24.35
2018-09-10T10:19:02.348Z,24.90
2018-09-10T10:30:04.379Z,25.49
2018-09-10T10:41:05.469Z,25.02
2018-09-10T10:52:07.236Z,25.99
2018-09-10T11:03:05.789Z,26.15
2018-09-10T11:14:03.670Z,25.90
2018-09-10T11:25:02.621Z,26.47
2018-09-10T11:35:58.184Z,27.58
2018-09-10T11:46:57.934Z,27.73
2018-09-10T11:57:56.022Z,27.57
2018-09-10T12:08:56.813Z,28.07
2018-09-10T12:19:58.804Z,28.24
2018-09-10T12:30:59.512Z,28.14
2018-09-10T12:41:59.730Z,27.89
2018-09-10T12:53:00.540Z,28.06
2018-09-10T13:04:02.239Z,28.53
2018-09-10T13:15:05.488Z,29.43
2018-09-10T13:26:02.270Z,29.43
2018-09-10T13:37:00.900Z,29.84
2018-09-10T13:47:49.437Z,30.81
2018-09-10T13:58:32.958Z,31.80
2018-09-10T14:09:05.780Z,31.31
2018-09-10T14:19:53.830Z,31.68
2018-09-10T14:30:35.147Z,31.02
2018-09-10T14:41:32.954Z,29.19
2018-09-10T14:52:30.292Z,28.16
2018-09-10T15:03:26.023Z,27.31
2018-09-10T15:14:24.207Z,26.80
2018-09-10T15:25:24.553Z,26.35
2018-09-10T15:36:18.553Z,26.11
2018-09-10T15:47:09.421Z,25.62
2018-09-10T15:58:08.706Z,25.13
2018-09-10T16:09:09.872Z,24.85
2018-09-10T16:20:09.233Z,24.47
2018-09-10T16:31:08.375Z,24.04
2018-09-10T16:42:10.407Z,23.89
2018-09-10T16:53:09.453Z,23.48
2018-09-10T17:04:10.823Z,22.68
2018-09-10T17:15:02.952Z,22.12
2018-09-10T17:26:03.330Z,21.44
2018-09-10T17:37:02.639Z,20.94
2018-09-10T17:48:03.626Z,20.64
2018-09-10T17:59:02.102Z,20.08
2018-09-10T18:10:03.464Z,19.83
2018-09-10T18:20:58.907Z,19.55
2018-09-10T18:31:57.462Z,19.36
2018-09-10T18:42:57.334Z,18.98
2018-09-10T18:53:55.212Z,18.68
2018-09-10T19:04:56.080Z,18.44
2018-09-10T19:15:54.993Z,18.34
2018-09-10T19:26:54.477Z,18.04
2018-09-10T19:37:53.698Z,17.92
2018-09-10T19:48:53.529Z,17.74
2018-09-10T19:59:53.722Z,17.54
2018-09-10T20:10:49.335Z,17.35
2018-09-10T20:21:49.433Z,17.28
2018-09-10T20:32:48.648Z,17.07
2018-09-10T20:43:42.780Z,16.98
2018-09-10T20:54:34.342Z,16.85
2018-09-10T21:05:36.098Z,16.71
2018-09-10T21:16:27.981Z,16.75
2018-09-10T21:27:23.770Z,16.66
2018-09-10T21:38:19.046Z,16.59
2018-09-10T21:49:16.153Z,16.44
2018-09-10T22:00:07.245Z,16.29
2018-09-10T22:11:02.865Z,16.12
2018-09-10T22:21:58.979Z,16.07
2018-09-10T22:32:53.737Z,16.06
2018-09-10T22:43:49.698Z,15.83
2018-09-10T22:54:51.495Z,15.82
2018-09-10T23:05:53.149Z,15.63
2018-09-10T23:16:54.746Z,15.52
2018-09-10T23:27:55.747Z,15.46
2018-09-10T23:38:53.846Z,15.39
2018-09-10T23:49:51.875Z,15.49
